Kalmar Nyckel — WCY3589 — position and weather

sailwx.info

Track history (hours):
 
Tides and Currents Weather Stations Pressure Air Temp Water Temp Dewpoint Dewpoint Depression Visibility Wind Speed Wind Dir Waves Ship Positions

Kalmar Nyckel (United States)

Ship's website: http://www.kalmarnyckel.org/

Owner: KALMAR NYCKEL FOUNDATION, WILMINGTON, DE. More information available from US FCC via Universal Licensing System.

Last reported at 2019-Jun-07 16:02 UTC. Time now 2019-Jun-17 18:39 UTC.
Position N 36°50' W 076°18'.
Warning: this ship's position is 10 days out of date.

Length 42 m; draft 3.8 m.

Type: Sailing vessel. MMSI: 367004000.

Date/timePositionNaut miles runAvg speedWind from/ knotsBaromVisibWave heightAir tempDewpointWater temp
2019-Jun-07 16:02N 36°50' W 076°18'  
2019-Jun-05 12:02N 36°50' W 076°18'0 0.0
2019-Jun-05 11:29N 36°50' W 076°18'0 0.0
2019-Jun-05 06:53N 36°50' W 076°18'0 0.0
2019-Jun-05 05:15N 36°50' W 076°18'0 0.0
2019-Jun-05 02:49N 36°50' W 076°18'0 0.0
2019-Jun-05 02:27N 36°50' W 076°18'134 2.7
2019-Jun-03 00:51N 38°50' W 075°04'8 6.5
2019-Jun-02 23:40N 38°57' W 075°07'2 6.2
2019-Jun-02 23:17N 38°60' W 075°08'7 6.3
2019-Jun-02 22:09N 39°06' W 075°12'1 7.5
2019-Jun-02 22:01N 39°07' W 075°13'4 7.7
2019-Jun-02 21:31N 39°10' W 075°16'5 9.3
2019-Jun-02 21:01N 39°14' W 075°19'510.5
2019-Jun-02 20:31N 39°18' W 075°23'611.2
2019-Jun-02 20:01N 39°22' W 075°28'611.2
2019-Jun-02 19:30N 39°27' W 075°33'5 9.9
2019-Jun-02 19:00N 39°32' W 075°33'5 9.5
2019-Jun-02 18:30N 39°36' W 075°34'3 6.3
2019-Jun-02 17:59N 39°39' W 075°34'0 0.0
2019-Jun-02 17:29N 39°39' W 075°34'0 0.0
2019-Jun-02 16:59N 39°39' W 075°34'0 0.0
2019-Jun-02 16:29N 39°39' W 075°34'0 0.0
2019-Jun-02 15:58N 39°39' W 075°34'0 0.0
2019-Jun-02 15:30N 39°39' W 075°34'0 0.0
2019-Jun-02 14:58N 39°39' W 075°34'0 0.0
2019-Jun-02 14:23N 39°39' W 075°34'0 0.0
2019-Jun-02 13:59N 39°39' W 075°34'0 0.0
2019-Jun-02 13:29N 39°39' W 075°34'0 0.0
2019-Jun-02 12:59N 39°39' W 075°34'0 0.0
2019-Jun-02 12:29N 39°39' W 075°34'0 0.0
2019-Jun-02 11:59N 39°39' W 075°34'0 0.0
2019-Jun-02 11:29N 39°39' W 075°34'0 0.0
2019-Jun-02 10:59N 39°39' W 075°34'0 0.0
2019-Jun-02 10:29N 39°39' W 075°34'0 0.0
2019-Jun-02 09:53N 39°39' W 075°34'0 0.0
2019-Jun-02 09:29N 39°39' W 075°34'0 0.0
2019-Jun-02 08:58N 39°39' W 075°34'0 0.0
2019-Jun-02 08:30N 39°39' W 075°34'0 0.0
2019-Jun-02 07:59N 39°39' W 075°34'0 0.0
2019-Jun-02 07:28N 39°39' W 075°34'0 0.0
2019-Jun-02 06:58N 39°39' W 075°34'0 0.0
2019-Jun-02 06:28N 39°39' W 075°34'0 0.0
2019-Jun-02 05:58N 39°39' W 075°34'0 0.0
2019-Jun-02 05:28N 39°39' W 075°34'0 0.0
2019-Jun-02 04:55N 39°39' W 075°34'0 0.0
2019-Jun-02 04:28N 39°39' W 075°34'0 0.0
2019-Jun-02 03:59N 39°39' W 075°34'0 0.0
2019-Jun-02 03:30N 39°39' W 075°34'0 0.0
2019-Jun-02 03:00N 39°39' W 075°34'0 0.0
2019-Jun-02 02:29N 39°39' W 075°34'0 0.0
2019-Jun-02 02:00N 39°39' W 075°34'0 0.0
2019-Jun-02 01:29N 39°39' W 075°34'0 0.0
2019-Jun-02 00:59N 39°39' W 075°34'0 0.0
2019-Jun-02 00:30N 39°39' W 075°34'0 0.0
2019-Jun-01 23:57N 39°39' W 075°34'0 0.0
2019-Jun-01 23:30N 39°39' W 075°34'0 0.0
2019-Jun-01 23:00N 39°39' W 075°34'0 0.0
2019-Jun-01 22:30N 39°39' W 075°34'2 3.4
2019-Jun-01 21:58N 39°41' W 075°32'1 1.1
2019-Jun-01 21:28N 39°40' W 075°32'1 1.3
2019-Jun-01 20:58N 39°40' W 075°33'0 1.0
2019-Jun-01 20:28N 39°39' W 075°33'0 0.3
2019-Jun-01 20:00N 39°39' W 075°34'0 0.0
2019-Jun-01 19:30N 39°39' W 075°34'0 0.0
2019-Jun-01 19:00N 39°39' W 075°34'0 0.0
2019-Jun-01 18:30N 39°39' W 075°34'0 0.0
2019-Jun-01 17:59N 39°39' W 075°34'0 0.0
2019-Jun-01 17:30N 39°39' W 075°34'0 0.0
2019-Jun-01 17:00N 39°39' W 075°34'0 0.0
2019-Jun-01 16:30N 39°39' W 075°34'0 0.0
2019-Jun-01 16:00N 39°39' W 075°34'0 0.0
2019-Jun-01 15:30N 39°39' W 075°34'0 0.0
2019-Jun-01 14:58N 39°39' W 075°34'0 0.0
2019-Jun-01 14:28N 39°39' W 075°34'0 0.0
2019-Jun-01 13:58N 39°39' W 075°34'0 0.0
2019-Jun-01 13:28N 39°39' W 075°34'0 0.0
2019-Jun-01 12:58N 39°39' W 075°34'0 0.0
2019-Jun-01 12:28N 39°39' W 075°34'0 0.0
2019-Jun-01 11:58N 39°39' W 075°34'0 0.0
2019-Jun-01 11:28N 39°39' W 075°34'0 0.0
2019-Jun-01 11:00N 39°39' W 075°34'0 0.0
2019-Jun-01 10:30N 39°39' W 075°34'0 0.0
2019-Jun-01 10:00N 39°39' W 075°34'0 0.0
2019-Jun-01 09:27N 39°39' W 075°34'0 0.0
2019-Jun-01 09:00N 39°39' W 075°34'0 0.0
2019-Jun-01 08:30N 39°39' W 075°34'0 0.0
2019-Jun-01 08:00N 39°39' W 075°34'0 0.0
2019-Jun-01 07:30N 39°39' W 075°34'0 0.0
2019-Jun-01 06:57N 39°39' W 075°34'0 0.0
2019-Jun-01 06:27N 39°39' W 075°34'0 0.0
2019-Jun-01 06:00N 39°39' W 075°34'0 0.0
2019-Jun-01 05:29N 39°39' W 075°34'0 0.0
2019-Jun-01 04:59N 39°39' W 075°34'0 0.0
2019-Jun-01 04:29N 39°39' W 075°34'0 0.0
2019-Jun-01 03:59N 39°39' W 075°34'0 0.0
2019-Jun-01 03:29N 39°39' W 075°34'0 0.0
2019-Jun-01 02:59N 39°39' W 075°34'0 0.0
2019-Jun-01 02:29N 39°39' W 075°34'0 0.0
2019-Jun-01 01:59N 39°39' W 075°34'0 0.0
2019-Jun-01 01:30N 39°39' W 075°34'0 0.0
2019-Jun-01 00:58N 39°39' W 075°34'0 0.0
2019-Jun-01 00:28N 39°39' W 075°34'0 0.0
2019-May-31 23:53N 39°39' W 075°34'0 0.0
2019-May-31 23:29N 39°39' W 075°34'0 0.0
2019-May-31 22:59N 39°39' W 075°34'0 0.0
2019-May-31 22:29N 39°39' W 075°34'0 0.0
2019-May-31 22:00N 39°39' W 075°34'0 0.0
2019-May-31 21:30N 39°39' W 075°34'0 0.0
2019-May-31 21:00N 39°39' W 075°34'0 0.0
2019-May-31 20:30N 39°39' W 075°34'0 0.0
2019-May-31 20:00N 39°39' W 075°34'0 0.0
2019-May-31 19:30N 39°39' W 075°34'0 0.0
2019-May-31 18:58N 39°39' W 075°34'0 0.0
2019-May-31 18:28N 39°39' W 075°34'0 0.0
2019-May-31 17:58N 39°39' W 075°34'0 0.0
2019-May-31 17:28N 39°39' W 075°34'0 0.0
2019-May-31 16:50N 39°39' W 075°34'0 0.0
2019-May-31 16:29N 39°39' W 075°34'0 0.0
2019-May-31 15:59N 39°39' W 075°34'0 0.0
2019-May-31 15:29N 39°39' W 075°34'0 0.0
2019-May-31 14:59N 39°39' W 075°34'0 0.0
2019-May-31 14:29N 39°39' W 075°34'0 0.0
2019-May-31 13:59N 39°39' W 075°34'0 0.0
2019-May-31 13:29N 39°39' W 075°34'0 0.0
2019-May-31 12:59N 39°39' W 075°34'0 0.0
2019-May-31 12:27N 39°39' W 075°34'0 0.0
2019-May-31 11:59N 39°39' W 075°34'0 0.0
2019-May-31 11:29N 39°39' W 075°34'0 0.0
2019-May-31 10:59N 39°39' W 075°34'0 0.0
2019-May-31 10:29N 39°39' W 075°34'0 0.0
2019-May-31 09:59N 39°39' W 075°34'0 0.0
2019-May-31 09:29N 39°39' W 075°34'0 0.0
2019-May-31 09:00N 39°39' W 075°34'0 0.0
2019-May-31 08:30N 39°39' W 075°34'0 0.0
2019-May-31 07:59N 39°39' W 075°34'0 0.0
2019-May-31 07:29N 39°39' W 075°34'0 0.0
2019-May-31 06:59N 39°39' W 075°34'0 0.0
2019-May-31 06:25N 39°39' W 075°34'0 0.0
2019-May-31 05:58N 39°39' W 075°34'0 0.0
2019-May-31 05:28N 39°39' W 075°34'0 0.0
2019-May-31 04:58N 39°39' W 075°34'0 0.0
2019-May-31 04:28N 39°39' W 075°34'0 0.0
2019-May-31 03:58N 39°39' W 075°34'0 0.0
2019-May-31 03:25N 39°39' W 075°34'0 0.0
2019-May-31 02:58N 39°39' W 075°34'0 0.0
2019-May-31 02:29N 39°39' W 075°34'0 0.0
2019-May-31 01:58N 39°39' W 075°34'0 0.0
2019-May-31 01:29N 39°39' W 075°34'0 0.0
2019-May-31 00:59N 39°39' W 075°34'0 0.0
2019-May-31 00:29N 39°39' W 075°34'0 0.0
2019-May-30 23:59N 39°39' W 075°34'0 0.0
2019-May-30 23:30N 39°39' W 075°34'0 0.0
2019-May-30 23:00N 39°39' W 075°34'0 0.0
2019-May-30 22:28N 39°39' W 075°34'0 0.0
2019-May-30 21:58N 39°39' W 075°34'0 0.0
2019-May-30 21:28N 39°39' W 075°34'0 0.0
2019-May-30 20:58N 39°39' W 075°34'0 0.0
2019-May-30 20:28N 39°39' W 075°34'0 0.0
2019-May-30 19:58N 39°39' W 075°34'0 0.0
2019-May-30 19:29N 39°39' W 075°34'0 0.0
2019-May-30 18:59N 39°39' W 075°34'0 0.0
2019-May-30 18:28N 39°39' W 075°34'0 0.0
2019-May-30 17:58N 39°39' W 075°34'0 0.0
2019-May-30 17:28N 39°39' W 075°34'0 0.0
2019-May-30 16:59N 39°39' W 075°34'0 0.0
2019-May-30 16:29N 39°39' W 075°34'0 0.0
2019-May-30 15:58N 39°39' W 075°34'0 0.0
2019-May-30 15:28N 39°39' W 075°34'0 0.0
2019-May-30 14:58N 39°39' W 075°34'0 0.0
2019-May-30 14:28N 39°39' W 075°34'0 0.0
2019-May-30 13:58N 39°39' W 075°34'0 0.0
2019-May-30 13:29N 39°39' W 075°34'0 0.0
2019-May-30 12:59N 39°39' W 075°34'0 0.0
2019-May-30 12:30N 39°39' W 075°34'0 0.0
2019-May-30 11:57N 39°39' W 075°34'0 0.0
2019-May-30 11:29N 39°39' W 075°34'0 0.0
2019-May-30 10:59N 39°39' W 075°34'0 0.0
2019-May-30 10:29N 39°39' W 075°34'0 0.0
2019-May-30 09:59N 39°39' W 075°34'0 0.0
2019-May-30 09:30N 39°39' W 075°34'0 0.0
2019-May-30 09:00N 39°39' W 075°34'0 0.0
2019-May-30 08:26N 39°39' W 075°34'0 0.0
2019-May-30 07:59N 39°39' W 075°34'0 0.0
2019-May-30 07:29N 39°39' W 075°34'0 0.0
2019-May-30 06:59N 39°39' W 075°34'0 0.0
2019-May-30 06:28N 39°39' W 075°34'0 0.0
2019-May-30 05:58N 39°39' W 075°34'0 0.0
2019-May-30 05:28N 39°39' W 075°34'0 0.0
2019-May-30 04:58N 39°39' W 075°34'0 0.0
2019-May-30 04:29N 39°39' W 075°34'0 0.0
2019-May-30 03:58N 39°39' W 075°34'0 0.0
2019-May-30 03:28N 39°39' W 075°34'0 0.0
2019-May-30 02:58N 39°39' W 075°34'0 0.0
2019-May-30 02:25N 39°39' W 075°34'0 0.0
2019-May-30 01:58N 39°39' W 075°34'0 0.0
2019-May-30 01:28N 39°39' W 075°34'0 0.0
2019-May-30 00:58N 39°39' W 075°34'0 0.0
2019-May-30 00:30N 39°39' W 075°34'0 0.0
2019-May-30 00:00N 39°39' W 075°34'0 0.0
2019-May-29 23:28N 39°39' W 075°34'0 0.0
2019-May-29 22:58N 39°39' W 075°34'0 0.0
2019-May-29 22:28N 39°39' W 075°34'0 0.0
2019-May-29 21:58N 39°39' W 075°34'0 0.0
2019-May-29 21:28N 39°39' W 075°34'0 0.0
2019-May-29 20:58N 39°39' W 075°34'0 0.0
2019-May-29 20:28N 39°39' W 075°34'0 0.0
2019-May-29 19:58N 39°39' W 075°34'0 0.0
2019-May-29 19:22N 39°39' W 075°34'0 0.0
2019-May-29 18:58N 39°39' W 075°34'0 0.0
2019-May-29 18:30N 39°39' W 075°34'0 0.0
2019-May-29 18:00N 39°39' W 075°34'0 0.0
2019-May-29 17:30N 39°39' W 075°34'0 0.0
2019-May-29 16:58N 39°39' W 075°34'0 0.0
2019-May-29 16:28N 39°39' W 075°34'0 0.0
2019-May-29 15:58N 39°39' W 075°34'0 0.0
2019-May-29 15:23N 39°39' W 075°34'0 0.0
2019-May-29 14:59N 39°39' W 075°34'0 0.0
2019-May-29 14:29N 39°39' W 075°34'0 0.0
2019-May-29 14:00N 39°39' W 075°34'0 0.0
2019-May-29 13:28N 39°39' W 075°34'0 0.0
2019-May-29 12:58N 39°39' W 075°34'0 0.0
2019-May-29 12:28N 39°39' W 075°34'0 0.0
2019-May-29 11:58N 39°39' W 075°34'0 0.0
2019-May-29 11:29N 39°39' W 075°34'0 0.0
2019-May-29 11:00N 39°39' W 075°34'0 0.0
2019-May-29 10:30N 39°39' W 075°34'0 0.0
2019-May-29 10:00N 39°39' W 075°34'0 0.0
2019-May-29 09:30N 39°39' W 075°34'0 0.0
2019-May-29 08:58N 39°39' W 075°34'0 0.0
2019-May-29 08:28N 39°39' W 075°34'0 0.0
2019-May-29 07:58N 39°39' W 075°34'0 0.0
2019-May-29 07:28N 39°39' W 075°34'0 0.0
2019-May-29 06:53N 39°39' W 075°34'0 0.0
2019-May-29 06:29N 39°39' W 075°34'0 0.0
2019-May-29 05:59N 39°39' W 075°34'0 0.0
2019-May-29 05:29N 39°39' W 075°34'0 0.0
2019-May-29 04:59N 39°39' W 075°34'0 0.0
2019-May-29 04:30N 39°39' W 075°34'0 0.0
2019-May-29 03:52N 39°39' W 075°34'0 0.0
2019-May-29 03:28N 39°39' W 075°34'0 0.0
2019-May-29 02:58N 39°39' W 075°34'0 0.0
2019-May-29 02:30N 39°39' W 075°34'0 0.0
2019-May-29 02:00N 39°39' W 075°34'0 0.0
2019-May-29 01:30N 39°39' W 075°34'0 0.0
2019-May-29 01:00N 39°39' W 075°34'0 0.0
2019-May-29 00:29N 39°39' W 075°34'0 0.0
2019-May-29 00:00N 39°39' W 075°34'0 0.0
2019-May-28 23:28N 39°39' W 075°34'0 0.0
2019-May-28 22:58N 39°39' W 075°34'0 0.0
2019-May-28 22:28N 39°39' W 075°34'0 0.0
2019-May-28 22:00N 39°39' W 075°34'0 0.0
2019-May-28 21:30N 39°39' W 075°34'0 0.0
2019-May-28 21:00N 39°39' W 075°34'0 0.0
2019-May-28 20:30N 39°39' W 075°34'0 0.0
2019-May-28 19:57N 39°39' W 075°34'0 0.0
2019-May-28 19:30N 39°39' W 075°34'0 0.0
2019-May-28 18:58N 39°39' W 075°34'0 0.0
2019-May-28 18:28N 39°39' W 075°34'0 0.0
2019-May-28 17:58N 39°39' W 075°34'  
Track history (hours):
 
Tides and Currents Weather Stations Pressure Air Temp Water Temp Dewpoint Dewpoint Depression Visibility Wind Speed Wind Dir Waves Ship Positions

Kalmar Nyckel (United States)

Ship's website: http://www.kalmarnyckel.org/

Owner: KALMAR NYCKEL FOUNDATION, WILMINGTON, DE. More information available from US FCC via Universal Licensing System.

Last reported at 2019-Jun-07 16:02 UTC. Time now 2019-Jun-17 18:39 UTC.
Position N 36°50' W 076°18'.
Warning: this ship's position is 10 days out of date.

Length 42 m; draft 3.8 m.

Type: Sailing vessel. MMSI: 367004000.

Date/timePositionNaut miles runAvg speedWind from/ knotsBaromVisibWave heightAir tempDewpointWater temp
2019-Jun-07 16:02N 36°50' W 076°18'  
2019-Jun-05 12:02N 36°50' W 076°18'0 0.0
2019-Jun-05 11:29N 36°50' W 076°18'0 0.0
2019-Jun-05 06:53N 36°50' W 076°18'0 0.0
2019-Jun-05 05:15N 36°50' W 076°18'0 0.0
2019-Jun-05 02:49N 36°50' W 076°18'0 0.0
2019-Jun-05 02:27N 36°50' W 076°18'134 2.7
2019-Jun-03 00:51N 38°50' W 075°04'8 6.5
2019-Jun-02 23:40N 38°57' W 075°07'2 6.2
2019-Jun-02 23:17N 38°60' W 075°08'7 6.3
2019-Jun-02 22:09N 39°06' W 075°12'1 7.5
2019-Jun-02 22:01N 39°07' W 075°13'4 7.7
2019-Jun-02 21:31N 39°10' W 075°16'5 9.3
2019-Jun-02 21:01N 39°14' W 075°19'510.5
2019-Jun-02 20:31N 39°18' W 075°23'611.2
2019-Jun-02 20:01N 39°22' W 075°28'611.2
2019-Jun-02 19:30N 39°27' W 075°33'5 9.9
2019-Jun-02 19:00N 39°32' W 075°33'5 9.5
2019-Jun-02 18:30N 39°36' W 075°34'3 6.3
2019-Jun-02 17:59N 39°39' W 075°34'0 0.0
2019-Jun-02 17:29N 39°39' W 075°34'0 0.0
2019-Jun-02 16:59N 39°39' W 075°34'0 0.0
2019-Jun-02 16:29N 39°39' W 075°34'0 0.0
2019-Jun-02 15:58N 39°39' W 075°34'0 0.0
2019-Jun-02 15:30N 39°39' W 075°34'0 0.0
2019-Jun-02 14:58N 39°39' W 075°34'0 0.0
2019-Jun-02 14:23N 39°39' W 075°34'0 0.0
2019-Jun-02 13:59N 39°39' W 075°34'0 0.0
2019-Jun-02 13:29N 39°39' W 075°34'0 0.0
2019-Jun-02 12:59N 39°39' W 075°34'0 0.0
2019-Jun-02 12:29N 39°39' W 075°34'0 0.0
2019-Jun-02 11:59N 39°39' W 075°34'0 0.0
2019-Jun-02 11:29N 39°39' W 075°34'0 0.0
2019-Jun-02 10:59N 39°39' W 075°34'0 0.0
2019-Jun-02 10:29N 39°39' W 075°34'0 0.0
2019-Jun-02 09:53N 39°39' W 075°34'0 0.0
2019-Jun-02 09:29N 39°39' W 075°34'0 0.0
2019-Jun-02 08:58N 39°39' W 075°34'0 0.0
2019-Jun-02 08:30N 39°39' W 075°34'0 0.0
2019-Jun-02 07:59N 39°39' W 075°34'0 0.0
2019-Jun-02 07:28N 39°39' W 075°34'0 0.0
2019-Jun-02 06:58N 39°39' W 075°34'0 0.0
2019-Jun-02 06:28N 39°39' W 075°34'0 0.0
2019-Jun-02 05:58N 39°39' W 075°34'0 0.0
2019-Jun-02 05:28N 39°39' W 075°34'0 0.0
2019-Jun-02 04:55N 39°39' W 075°34'0 0.0
2019-Jun-02 04:28N 39°39' W 075°34'0 0.0
2019-Jun-02 03:59N 39°39' W 075°34'0 0.0
2019-Jun-02 03:30N 39°39' W 075°34'0 0.0
2019-Jun-02 03:00N 39°39' W 075°34'0 0.0
2019-Jun-02 02:29N 39°39' W 075°34'0 0.0
2019-Jun-02 02:00N 39°39' W 075°34'0 0.0
2019-Jun-02 01:29N 39°39' W 075°34'0 0.0
2019-Jun-02 00:59N 39°39' W 075°34'0 0.0
2019-Jun-02 00:30N 39°39' W 075°34'0 0.0
2019-Jun-01 23:57N 39°39' W 075°34'0 0.0
2019-Jun-01 23:30N 39°39' W 075°34'0 0.0
2019-Jun-01 23:00N 39°39' W 075°34'0 0.0
2019-Jun-01 22:30N 39°39' W 075°34'2 3.4
2019-Jun-01 21:58N 39°41' W 075°32'1 1.1
2019-Jun-01 21:28N 39°40' W 075°32'1 1.3
2019-Jun-01 20:58N 39°40' W 075°33'0 1.0
2019-Jun-01 20:28N 39°39' W 075°33'0 0.3
2019-Jun-01 20:00N 39°39' W 075°34'0 0.0
2019-Jun-01 19:30N 39°39' W 075°34'0 0.0
2019-Jun-01 19:00N 39°39' W 075°34'0 0.0
2019-Jun-01 18:30N 39°39' W 075°34'0 0.0
2019-Jun-01 17:59N 39°39' W 075°34'0 0.0
2019-Jun-01 17:30N 39°39' W 075°34'0 0.0
2019-Jun-01 17:00N 39°39' W 075°34'0 0.0
2019-Jun-01 16:30N 39°39' W 075°34'0 0.0
2019-Jun-01 16:00N 39°39' W 075°34'0 0.0
2019-Jun-01 15:30N 39°39' W 075°34'0 0.0
2019-Jun-01 14:58N 39°39' W 075°34'0 0.0
2019-Jun-01 14:28N 39°39' W 075°34'0 0.0
2019-Jun-01 13:58N 39°39' W 075°34'0 0.0
2019-Jun-01 13:28N 39°39' W 075°34'0 0.0
2019-Jun-01 12:58N 39°39' W 075°34'0 0.0
2019-Jun-01 12:28N 39°39' W 075°34'0 0.0
2019-Jun-01 11:58N 39°39' W 075°34'0 0.0
2019-Jun-01 11:28N 39°39' W 075°34'0 0.0
2019-Jun-01 11:00N 39°39' W 075°34'0 0.0
2019-Jun-01 10:30N 39°39' W 075°34'0 0.0
2019-Jun-01 10:00N 39°39' W 075°34'0 0.0
2019-Jun-01 09:27N 39°39' W 075°34'0 0.0
2019-Jun-01 09:00N 39°39' W 075°34'0 0.0
2019-Jun-01 08:30N 39°39' W 075°34'0 0.0
2019-Jun-01 08:00N 39°39' W 075°34'0 0.0
2019-Jun-01 07:30N 39°39' W 075°34'0 0.0
2019-Jun-01 06:57N 39°39' W 075°34'0 0.0
2019-Jun-01 06:27N 39°39' W 075°34'0 0.0
2019-Jun-01 06:00N 39°39' W 075°34'0 0.0
2019-Jun-01 05:29N 39°39' W 075°34'0 0.0
2019-Jun-01 04:59N 39°39' W 075°34'0 0.0
2019-Jun-01 04:29N 39°39' W 075°34'0 0.0
2019-Jun-01 03:59N 39°39' W 075°34'0 0.0
2019-Jun-01 03:29N 39°39' W 075°34'0 0.0
2019-Jun-01 02:59N 39°39' W 075°34'0 0.0
2019-Jun-01 02:29N 39°39' W 075°34'0 0.0
2019-Jun-01 01:59N 39°39' W 075°34'0 0.0
2019-Jun-01 01:30N 39°39' W 075°34'0 0.0
2019-Jun-01 00:58N 39°39' W 075°34'0 0.0
2019-Jun-01 00:28N 39°39' W 075°34'0 0.0
2019-May-31 23:53N 39°39' W 075°34'0 0.0
2019-May-31 23:29N 39°39' W 075°34'0 0.0
2019-May-31 22:59N 39°39' W 075°34'0 0.0
2019-May-31 22:29N 39°39' W 075°34'0 0.0
2019-May-31 22:00N 39°39' W 075°34'0 0.0
2019-May-31 21:30N 39°39' W 075°34'0 0.0
2019-May-31 21:00N 39°39' W 075°34'0 0.0
2019-May-31 20:30N 39°39' W 075°34'0 0.0
2019-May-31 20:00N 39°39' W 075°34'0 0.0
2019-May-31 19:30N 39°39' W 075°34'0 0.0
2019-May-31 18:58N 39°39' W 075°34'0 0.0
2019-May-31 18:28N 39°39' W 075°34'0 0.0
2019-May-31 17:58N 39°39' W 075°34'0 0.0
2019-May-31 17:28N 39°39' W 075°34'0 0.0
2019-May-31 16:50N 39°39' W 075°34'0 0.0
2019-May-31 16:29N 39°39' W 075°34'0 0.0
2019-May-31 15:59N 39°39' W 075°34'0 0.0
2019-May-31 15:29N 39°39' W 075°34'0 0.0
2019-May-31 14:59N 39°39' W 075°34'0 0.0
2019-May-31 14:29N 39°39' W 075°34'0 0.0
2019-May-31 13:59N 39°39' W 075°34'0 0.0
2019-May-31 13:29N 39°39' W 075°34'0 0.0
2019-May-31 12:59N 39°39' W 075°34'0 0.0
2019-May-31 12:27N 39°39' W 075°34'0 0.0
2019-May-31 11:59N 39°39' W 075°34'0 0.0
2019-May-31 11:29N 39°39' W 075°34'0 0.0
2019-May-31 10:59N 39°39' W 075°34'0 0.0
2019-May-31 10:29N 39°39' W 075°34'0 0.0
2019-May-31 09:59N 39°39' W 075°34'0 0.0
2019-May-31 09:29N 39°39' W 075°34'0 0.0
2019-May-31 09:00N 39°39' W 075°34'0 0.0
2019-May-31 08:30N 39°39' W 075°34'0 0.0
2019-May-31 07:59N 39°39' W 075°34'0 0.0
2019-May-31 07:29N 39°39' W 075°34'0 0.0
2019-May-31 06:59N 39°39' W 075°34'0 0.0
2019-May-31 06:25N 39°39' W 075°34'0 0.0
2019-May-31 05:58N 39°39' W 075°34'0 0.0
2019-May-31 05:28N 39°39' W 075°34'0 0.0
2019-May-31 04:58N 39°39' W 075°34'0 0.0
2019-May-31 04:28N 39°39' W 075°34'0 0.0
2019-May-31 03:58N 39°39' W 075°34'0 0.0
2019-May-31 03:25N 39°39' W 075°34'0 0.0
2019-May-31 02:58N 39°39' W 075°34'0 0.0
2019-May-31 02:29N 39°39' W 075°34'0 0.0
2019-May-31 01:58N 39°39' W 075°34'0 0.0
2019-May-31 01:29N 39°39' W 075°34'0 0.0
2019-May-31 00:59N 39°39' W 075°34'0 0.0
2019-May-31 00:29N 39°39' W 075°34'0 0.0
2019-May-30 23:59N 39°39' W 075°34'0 0.0
2019-May-30 23:30N 39°39' W 075°34'0 0.0
2019-May-30 23:00N 39°39' W 075°34'0 0.0
2019-May-30 22:28N 39°39' W 075°34'0 0.0
2019-May-30 21:58N 39°39' W 075°34'0 0.0
2019-May-30 21:28N 39°39' W 075°34'0 0.0
2019-May-30 20:58N 39°39' W 075°34'0 0.0
2019-May-30 20:28N 39°39' W 075°34'0 0.0
2019-May-30 19:58N 39°39' W 075°34'0 0.0
2019-May-30 19:29N 39°39' W 075°34'0 0.0
2019-May-30 18:59N 39°39' W 075°34'0 0.0
2019-May-30 18:28N 39°39' W 075°34'0 0.0
2019-May-30 17:58N 39°39' W 075°34'0 0.0
2019-May-30 17:28N 39°39' W 075°34'0 0.0
2019-May-30 16:59N 39°39' W 075°34'0 0.0
2019-May-30 16:29N 39°39' W 075°34'0 0.0
2019-May-30 15:58N 39°39' W 075°34'0 0.0
2019-May-30 15:28N 39°39' W 075°34'0 0.0
2019-May-30 14:58N 39°39' W 075°34'0 0.0
2019-May-30 14:28N 39°39' W 075°34'0 0.0
2019-May-30 13:58N 39°39' W 075°34'0 0.0
2019-May-30 13:29N 39°39' W 075°34'0 0.0
2019-May-30 12:59N 39°39' W 075°34'0 0.0
2019-May-30 12:30N 39°39' W 075°34'0 0.0
2019-May-30 11:57N 39°39' W 075°34'0 0.0
2019-May-30 11:29N 39°39' W 075°34'0 0.0
2019-May-30 10:59N 39°39' W 075°34'0 0.0
2019-May-30 10:29N 39°39' W 075°34'0 0.0
2019-May-30 09:59N 39°39' W 075°34'0 0.0
2019-May-30 09:30N 39°39' W 075°34'0 0.0
2019-May-30 09:00N 39°39' W 075°34'0 0.0
2019-May-30 08:26N 39°39' W 075°34'0 0.0
2019-May-30 07:59N 39°39' W 075°34'0 0.0
2019-May-30 07:29N 39°39' W 075°34'0 0.0
2019-May-30 06:59N 39°39' W 075°34'0 0.0
2019-May-30 06:28N 39°39' W 075°34'0 0.0
2019-May-30 05:58N 39°39' W 075°34'0 0.0
2019-May-30 05:28N 39°39' W 075°34'0 0.0
2019-May-30 04:58N 39°39' W 075°34'0 0.0
2019-May-30 04:29N 39°39' W 075°34'0 0.0
2019-May-30 03:58N 39°39' W 075°34'0 0.0
2019-May-30 03:28N 39°39' W 075°34'0 0.0
2019-May-30 02:58N 39°39' W 075°34'0 0.0
2019-May-30 02:25N 39°39' W 075°34'0 0.0
2019-May-30 01:58N 39°39' W 075°34'0 0.0
2019-May-30 01:28N 39°39' W 075°34'0 0.0
2019-May-30 00:58N 39°39' W 075°34'0 0.0
2019-May-30 00:30N 39°39' W 075°34'0 0.0
2019-May-30 00:00N 39°39' W 075°34'0 0.0
2019-May-29 23:28N 39°39' W 075°34'0 0.0
2019-May-29 22:58N 39°39' W 075°34'0 0.0
2019-May-29 22:28N 39°39' W 075°34'0 0.0
2019-May-29 21:58N 39°39' W 075°34'0 0.0
2019-May-29 21:28N 39°39' W 075°34'0 0.0
2019-May-29 20:58N 39°39' W 075°34'0 0.0
2019-May-29 20:28N 39°39' W 075°34'0 0.0
2019-May-29 19:58N 39°39' W 075°34'0 0.0
2019-May-29 19:22N 39°39' W 075°34'0 0.0
2019-May-29 18:58N 39°39' W 075°34'0 0.0
2019-May-29 18:30N 39°39' W 075°34'0 0.0
2019-May-29 18:00N 39°39' W 075°34'0 0.0
2019-May-29 17:30N 39°39' W 075°34'0 0.0
2019-May-29 16:58N 39°39' W 075°34'0 0.0
2019-May-29 16:28N 39°39' W 075°34'0 0.0
2019-May-29 15:58N 39°39' W 075°34'0 0.0
2019-May-29 15:23N 39°39' W 075°34'0 0.0
2019-May-29 14:59N 39°39' W 075°34'0 0.0
2019-May-29 14:29N 39°39' W 075°34'0 0.0
2019-May-29 14:00N 39°39' W 075°34'0 0.0
2019-May-29 13:28N 39°39' W 075°34'0 0.0
2019-May-29 12:58N 39°39' W 075°34'0 0.0
2019-May-29 12:28N 39°39' W 075°34'0 0.0
2019-May-29 11:58N 39°39' W 075°34'0 0.0
2019-May-29 11:29N 39°39' W 075°34'0 0.0
2019-May-29 11:00N 39°39' W 075°34'0 0.0
2019-May-29 10:30N 39°39' W 075°34'0 0.0
2019-May-29 10:00N 39°39' W 075°34'0 0.0
2019-May-29 09:30N 39°39' W 075°34'0 0.0
2019-May-29 08:58N 39°39' W 075°34'0 0.0
2019-May-29 08:28N 39°39' W 075°34'0 0.0
2019-May-29 07:58N 39°39' W 075°34'0 0.0
2019-May-29 07:28N 39°39' W 075°34'0 0.0
2019-May-29 06:53N 39°39' W 075°34'0 0.0
2019-May-29 06:29N 39°39' W 075°34'0 0.0
2019-May-29 05:59N 39°39' W 075°34'0 0.0
2019-May-29 05:29N 39°39' W 075°34'0 0.0
2019-May-29 04:59N 39°39' W 075°34'0 0.0
2019-May-29 04:30N 39°39' W 075°34'0 0.0
2019-May-29 03:52N 39°39' W 075°34'0 0.0
2019-May-29 03:28N 39°39' W 075°34'0 0.0
2019-May-29 02:58N 39°39' W 075°34'0 0.0
2019-May-29 02:30N 39°39' W 075°34'0 0.0
2019-May-29 02:00N 39°39' W 075°34'0 0.0
2019-May-29 01:30N 39°39' W 075°34'0 0.0
2019-May-29 01:00N 39°39' W 075°34'0 0.0
2019-May-29 00:29N 39°39' W 075°34'0 0.0
2019-May-29 00:00N 39°39' W 075°34'0 0.0
2019-May-28 23:28N 39°39' W 075°34'0 0.0
2019-May-28 22:58N 39°39' W 075°34'0 0.0
2019-May-28 22:28N 39°39' W 075°34'0 0.0
2019-May-28 22:00N 39°39' W 075°34'0 0.0
2019-May-28 21:30N 39°39' W 075°34'0 0.0
2019-May-28 21:00N 39°39' W 075°34'0 0.0
2019-May-28 20:30N 39°39' W 075°34'0 0.0
2019-May-28 19:57N 39°39' W 075°34'0 0.0
2019-May-28 19:30N 39°39' W 075°34'0 0.0
2019-May-28 18:58N 39°39' W 075°34'0 0.0
2019-May-28 18:28N 39°39' W 075°34'0 0.0
2019-May-28 17:58N 39°39' W 075°34'  

Dump ship's entire track history